Time;durP1;ratioP1;P1;durP2;ratioP2;P2;SDS_P1;SDS_P2;PMS_P1;PMS_P2;Temp;Humidity;BMP_temperature;BMP_pressure;BME280_temperature;BME280_humidity;BME280_pressure;Samples;Min_cycle;Max_cycle;Signal;HPM_P1;HPM_P2
2021/01/25 00:00:30;;;;;;;9.15;6.55;;;3.00;80.00;;;;;;4868893;29;20135;-92
2021/01/25 00:02:55;;;;;;;10.25;6.95;;;3.10;80.00;;;;;;4884337;29;20029;-91
2021/01/25 00:05:21;;;;;;;12.85;6.78;;;3.10;80.00;;;;;;4853610;29;20040;-91
2021/01/25 00:07:47;;;;;;;12.15;8.15;;;3.10;80.20;;;;;;4868956;29;20043;-91
2021/01/25 00:10:12;;;;;;;12.18;7.70;;;3.10;80.20;;;;;;4870074;29;20044;-92
2021/01/25 00:12:38;;;;;;;12.95;8.65;;;3.00;80.30;;;;;;4887144;29;20075;-91
2021/01/25 00:15:05;;;;;;;10.13;7.68;;;3.00;80.30;;;;;;4887739;29;20044;-91
2021/01/25 00:17:31;;;;;;;12.23;8.48;;;3.10;80.40;;;;;;4887445;29;20051;-90
2021/01/25 00:19:57;;;;;;;9.57;7.70;;;3.00;80.50;;;;;;4902600;29;20510;-91
2021/01/25 00:22:22;;;;;;;11.95;8.85;;;3.00;80.50;;;;;;4886111;29;20032;-91
2021/01/25 00:24:48;;;;;;;12.52;8.23;;;3.00;80.50;;;;;;4886969;29;20115;-91
2021/01/25 00:27:14;;;;;;;10.30;7.57;;;3.00;80.50;;;;;;4871334;29;20077;-91
2021/01/25 00:29:40;;;;;;;11.02;7.97;;;3.00;80.50;;;;;;4902397;29;20371;-92
2021/01/25 00:32:06;;;;;;;11.98;8.70;;;3.10;80.40;;;;;;4871433;29;20383;-90
2021/01/25 00:34:32;;;;;;;15.38;10.05;;;3.10;80.40;;;;;;4902409;29;20048;-91
2021/01/25 00:36:58;;;;;;;13.32;9.48;;;3.10;80.50;;;;;;4902302;29;20071;-91
2021/01/25 00:39:23;;;;;;;15.35;9.82;;;3.10;80.40;;;;;;4886565;29;20075;-91
2021/01/25 00:41:49;;;;;;;13.23;9.68;;;3.10;80.50;;;;;;4871223;29;20088;-91
2021/01/25 00:44:15;;;;;;;13.77;9.77;;;3.10;80.50;;;;;;4871602;29;20043;-92
2021/01/25 00:46:41;;;;;;;12.70;9.25;;;3.10;80.50;;;;;;4901603;29;20127;-91
2021/01/25 00:49:07;;;;;;;13.98;9.23;;;3.10;80.40;;;;;;4901994;29;20134;-91
2021/01/25 00:51:32;;;;;;;13.43;9.57;;;3.10;80.50;;;;;;4886866;29;20138;-91
2021/01/25 00:53:58;;;;;;;13.13;9.98;;;3.10;80.40;;;;;;4902059;29;20032;-91
2021/01/25 00:56:24;;;;;;;13.65;9.48;;;3.10;80.40;;;;;;4901903;29;20063;-91
2021/01/25 00:58:49;;;;;;;14.05;10.43;;;3.10;80.50;;;;;;4901931;29;20125;-91
2021/01/25 01:01:15;;;;;;;12.85;9.57;;;3.10;80.50;;;;;;4886189;29;20036;-91
2021/01/25 01:03:41;;;;;;;15.05;10.27;;;3.10;80.40;;;;;;4870472;29;20043;-90
2021/01/25 01:06:06;;;;;;;16.80;11.00;;;3.10;80.60;;;;;;4866878;29;20056;-90
2021/01/25 01:08:32;;;;;;;14.05;10.80;;;3.10;80.60;;;;;;4898100;29;20036;-90
2021/01/25 01:10:58;;;;;;;13.65;9.65;;;3.10;80.70;;;;;;4867870;29;20044;-90
2021/01/25 01:13:24;;;;;;;14.43;10.57;;;3.10;80.70;;;;;;4898270;29;20487;-90
2021/01/25 01:15:49;;;;;;;14.18;10.25;;;3.10;80.80;;;;;;4882070;29;20044;-90
2021/01/25 01:18:15;;;;;;;12.95;8.88;;;3.10;80.70;;;;;;4867391;29;20079;-90
2021/01/25 01:20:41;;;;;;;13.50;9.63;;;3.10;80.60;;;;;;4882690;29;20040;-90
2021/01/25 01:23:06;;;;;;;13.90;8.15;;;3.10;80.60;;;;;;4883090;29;20033;-90
2021/01/25 01:25:33;;;;;;;10.63;8.18;;;3.10;80.50;;;;;;4882867;29;20037;-90
2021/01/25 01:27:59;;;;;;;13.27;9.70;;;3.10;80.50;;;;;;4853428;29;20040;-91
2021/01/25 01:30:25;;;;;;;12.93;9.32;;;3.10;80.50;;;;;;4882623;29;20107;-90
2021/01/25 01:32:51;;;;;;;12.73;8.70;;;3.20;80.60;;;;;;4882503;29;20508;-89
2021/01/25 01:35:17;;;;;;;10.55;7.78;;;3.10;80.50;;;;;;4882469;29;20127;-90
2021/01/25 01:37:43;;;;;;;13.00;9.48;;;3.10;80.50;;;;;;4866874;29;20076;-90
2021/01/25 01:40:10;;;;;;;11.73;8.70;;;3.10;80.50;;;;;;4881851;29;20081;-89
2021/01/25 01:42:37;;;;;;;10.95;8.25;;;3.10;80.60;;;;;;4882329;29;20036;-90
2021/01/25 01:45:04;;;;;;;12.35;9.13;;;3.10;80.60;;;;;;4882391;29;20471;-90
2021/01/25 01:47:31;;;;;;;14.10;9.18;;;3.10;80.80;;;;;;4867103;29;20040;-89
2021/01/25 01:49:57;;;;;;;15.38;9.95;;;3.10;80.70;;;;;;4882132;29;20047;-90
2021/01/25 01:52:23;;;;;;;13.52;8.82;;;3.10;80.60;;;;;;4882341;29;20066;-91
2021/01/25 01:54:50;;;;;;;11.82;8.88;;;3.10;80.60;;;;;;4866836;29;20132;-90
2021/01/25 01:57:15;;;;;;;12.38;8.85;;;3.10;80.70;;;;;;4882140;29;20063;-90
2021/01/25 01:59:42;;;;;;;11.68;8.68;;;3.20;80.60;;;;;;4866809;29;20484;-90
2021/01/25 02:02:07;;;;;;;13.82;9.57;;;3.10;80.70;;;;;;4882187;29;20036;-90
2021/01/25 02:04:34;;;;;;;10.65;8.48;;;3.10;80.70;;;;;;4873026;29;20480;-90
2021/01/25 02:07:03;;;;;;;11.85;8.65;;;3.10;80.60;;;;;;4882264;29;20402;-90
2021/01/25 02:09:30;;;;;;;12.30;8.90;;;3.10;80.60;;;;;;4899008;29;20052;-90
2021/01/25 02:11:56;;;;;;;11.25;8.45;;;3.10;80.60;;;;;;4882484;29;20100;-90
2021/01/25 02:14:22;;;;;;;11.77;8.77;;;3.10;80.70;;;;;;4882532;29;20051;-91
2021/01/25 02:16:48;;;;;;;11.90;8.57;;;3.10;80.80;;;;;;4897518;29;20483;-91
2021/01/25 02:19:22;;;;;;;11.93;8.35;;;3.10;81.30;;;;;;4866523;29;20064;-90
2021/01/25 02:22:17;;;;;;;11.65;8.30;;;3.10;80.80;;;;;;4897940;29;20036;-90
2021/01/25 02:24:59;;;;;;;11.45;8.30;;;3.10;80.80;;;;;;4856103;29;20095;-90
2021/01/25 02:27:36;;;;;;;12.68;9.38;;;3.20;80.80;;;;;;4897855;29;20127;-90
2021/01/25 02:30:06;;;;;;;10.73;7.80;;;3.10;80.80;;;;;;4897602;29;20037;-91
2021/01/25 02:32:33;;;;;;;10.65;7.88;;;3.10;80.80;;;;;;4897851;29;20064;-91
2021/01/25 02:35:02;;;;;;;12.15;7.80;;;3.10;80.70;;;;;;4882238;29;20049;-91
2021/01/25 02:37:28;;;;;;;10.90;7.50;;;3.20;80.80;;;;;;4897732;29;20040;-90
2021/01/25 02:39:56;;;;;;;10.30;7.43;;;3.10;80.70;;;;;;4881600;29;20147;-90
2021/01/25 02:42:23;;;;;;;10.47;7.47;;;3.10;80.60;;;;;;4897921;29;20037;-90
2021/01/25 02:44:50;;;;;;;11.63;7.32;;;3.20;80.70;;;;;;4882498;29;20048;-91
2021/01/25 02:47:18;;;;;;;9.65;7.65;;;3.20;80.70;;;;;;4900151;29;20033;-91
2021/01/25 02:49:44;;;;;;;12.45;7.95;;;3.20;80.60;;;;;;4885543;29;20055;-91
2021/01/25 02:52:12;;;;;;;12.10;7.82;;;3.20;80.60;;;;;;4885883;29;20112;-90
2021/01/25 02:54:38;;;;;;;10.98;8.07;;;3.20;80.60;;;;;;4901323;29;20036;-90
2021/01/25 02:57:06;;;;;;;11.18;7.00;;;3.20;80.50;;;;;;4901499;29;20043;-92
2021/01/25 02:59:32;;;;;;;9.93;6.97;;;3.20;80.50;;;;;;4901529;29;20088;-90
2021/01/25 03:01:58;;;;;;;8.75;6.90;;;3.20;80.50;;;;;;4885778;29;20044;-91
2021/01/25 03:04:24;;;;;;;9.00;6.60;;;3.20;80.50;;;;;;4885397;29;20132;-91
2021/01/25 03:06:50;;;;;;;9.18;6.55;;;3.20;80.50;;;;;;4901118;29;20068;-91
2021/01/25 03:09:16;;;;;;;11.70;7.45;;;3.20;80.40;;;;;;4885363;29;20064;-91
2021/01/25 03:11:41;;;;;;;9.60;6.60;;;3.20;80.40;;;;;;4885131;29;20557;-90
2021/01/25 03:14:09;;;;;;;10.55;7.20;;;3.30;80.40;;;;;;4869688;29;20100;-91
2021/01/25 03:16:35;;;;;;;9.57;6.00;;;3.30;80.40;;;;;;4900828;29;20044;-91
2021/01/25 03:19:00;;;;;;;10.40;6.95;;;3.20;80.30;;;;;;4869517;29;20044;-91
2021/01/25 03:21:26;;;;;;;9.65;6.82;;;3.30;80.40;;;;;;4885467;29;20032;-91
2021/01/25 03:23:52;;;;;;;8.80;7.00;;;3.30;80.40;;;;;;4885305;29;20092;-91
2021/01/25 03:26:18;;;;;;;10.50;6.20;;;3.30;80.40;;;;;;4900748;29;20044;-91
2021/01/25 03:28:44;;;;;;;10.20;6.95;;;3.30;80.30;;;;;;4901074;29;20044;-90
2021/01/25 03:31:10;;;;;;;8.02;6.38;;;3.30;80.90;;;;;;4885017;29;20040;-91
2021/01/25 03:33:35;;;;;;;8.65;7.22;;;3.30;80.30;;;;;;4885384;29;20045;-91
2021/01/25 03:36:01;;;;;;;10.15;6.10;;;3.30;80.20;;;;;;4869874;29;20041;-91
2021/01/25 03:38:27;;;;;;;9.02;6.30;;;3.30;80.10;;;;;;4901698;29;20064;-90
2021/01/25 03:40:52;;;;;;;10.48;7.43;;;3.30;80.10;;;;;;4884831;29;20514;-91
2021/01/25 03:43:18;;;;;;;8.80;6.65;;;3.30;80.10;;;;;;4869220;29;20041;-91
2021/01/25 03:45:43;;;;;;;10.40;7.13;;;3.40;80.20;;;;;;4869230;29;20071;-91
2021/01/25 03:48:09;;;;;;;11.80;7.45;;;3.40;80.10;;;;;;4869228;29;20044;-91
2021/01/25 03:50:35;;;;;;;9.25;6.88;;;3.40;80.20;;;;;;4869243;29;20369;-91
2021/01/25 03:53:02;;;;;;;11.35;7.25;;;3.40;80.20;;;;;;4885405;29;20033;-90
2021/01/25 03:55:27;;;;;;;10.77;7.70;;;3.40;80.20;;;;;;4903416;29;20188;-90
2021/01/25 03:57:53;;;;;;;10.90;8.07;;;3.40;80.30;;;;;;4887534;29;20499;-90
2021/01/25 04:00:21;;;;;;;11.60;8.20;;;3.40;80.30;;;;;;4887676;29;20135;-91
2021/01/25 04:02:46;;;;;;;9.50;7.65;;;3.30;80.20;;;;;;4903202;29;20060;-92
2021/01/25 04:05:12;;;;;;;10.23;7.20;;;3.40;80.50;;;;;;4872188;29;20048;-92
2021/01/25 04:07:39;;;;;;;11.82;8.55;;;3.40;80.30;;;;;;4887685;29;20498;-91
2021/01/25 04:10:06;;;;;;;10.75;7.50;;;3.40;80.20;;;;;;4872224;29;20052;-90
2021/01/25 04:12:32;;;;;;;10.35;7.88;;;3.40;80.20;;;;;;4887928;29;20111;-91
2021/01/25 04:14:57;;;;;;;11.10;8.18;;;3.40;80.20;;;;;;4903012;29;20501;-90
2021/01/25 04:17:25;;;;;;;12.10;8.50;;;3.40;80.10;;;;;;4887571;29;20052;-92
2021/01/25 04:19:51;;;;;;;11.55;8.73;;;3.40;80.10;;;;;;4902941;29;20048;-92
2021/01/25 04:22:16;;;;;;;11.52;8.23;;;3.40;80.10;;;;;;4871957;29;20042;-91
2021/01/25 04:24:42;;;;;;;10.73;8.13;;;3.40;80.20;;;;;;4887243;29;20107;-90
2021/01/25 04:27:13;;;;;;;10.77;8.25;;;3.40;80.20;;;;;;4884001;29;20051;-91
2021/01/25 04:29:39;;;;;;;12.18;8.18;;;3.40;80.10;;;;;;4870079;29;20075;-91
2021/01/25 04:32:05;;;;;;;10.73;7.90;;;3.40;80.70;;;;;;4868765;29;20068;-90
2021/01/25 04:34:31;;;;;;;12.20;8.10;;;3.40;80.10;;;;;;4899662;29;20127;-91
2021/01/25 04:36:56;;;;;;;12.75;8.57;;;3.40;80.10;;;;;;4869100;29;20051;-92
2021/01/25 04:39:22;;;;;;;11.55;8.48;;;3.40;80.10;;;;;;4868763;29;20048;-91
2021/01/25 04:41:48;;;;;;;11.60;9.20;;;3.40;80.10;;;;;;4868280;29;20056;-91
2021/01/25 04:44:15;;;;;;;11.18;8.30;;;3.50;80.10;;;;;;4853091;29;20165;-91
2021/01/25 04:46:42;;;;;;;11.80;8.75;;;3.50;80.10;;;;;;4899449;29;20471;-90
2021/01/25 04:49:09;;;;;;;11.35;8.07;;;3.40;80.00;;;;;;4899342;29;20055;-91
2021/01/25 04:51:35;;;;;;;12.45;8.18;;;3.50;80.70;;;;;;4883815;29;20052;-91
2021/01/25 04:54:01;;;;;;;10.23;7.43;;;3.50;80.00;;;;;;4908762;23;20041;-90
2021/01/25 04:56:28;;;;;;;11.02;8.52;;;3.50;80.00;;;;;;4903785;29;20040;-90
2021/01/25 04:58:54;;;;;;;11.25;7.88;;;3.50;80.00;;;;;;4920897;29;20037;-90
2021/01/25 05:01:20;;;;;;;10.75;7.30;;;3.50;79.90;;;;;;4901150;29;20127;-90
2021/01/25 05:03:45;;;;;;;10.45;7.57;;;3.50;79.80;;;;;;4886099;29;20427;-90
2021/01/25 05:06:11;;;;;;;9.85;7.38;;;3.50;79.90;;;;;;4901317;29;20469;-91
2021/01/25 05:08:37;;;;;;;10.05;7.40;;;3.50;79.80;;;;;;4885735;29;20040;-91
2021/01/25 05:11:13;;;;;;;10.98;7.90;;;3.50;79.80;;;;;;4900255;29;20040;-91
2021/01/25 05:13:39;;;;;;;11.43;8.40;;;3.50;79.90;;;;;;4900891;29;20131;-90
2021/01/25 05:16:18;;;;;;;11.45;8.02;;;3.50;79.90;;;;;;4916658;29;20103;-90
2021/01/25 05:18:44;;;;;;;12.43;8.15;;;3.50;80.00;;;;;;4918490;29;20399;-90
2021/01/25 05:21:10;;;;;;;12.55;9.13;;;3.50;79.90;;;;;;4919620;29;20038;-90
2021/01/25 05:23:40;;;;;;;13.65;9.27;;;3.50;80.00;;;;;;4920065;29;20032;-90
2021/01/25 05:26:07;;;;;;;13.43;8.80;;;3.50;80.10;;;;;;4920080;29;20044;-90
2021/01/25 05:28:43;;;;;;;13.40;8.82;;;3.50;80.10;;;;;;4920178;29;20142;-90
2021/01/25 05:31:23;;;;;;;13.10;8.90;;;3.50;80.10;;;;;;4904117;29;20040;-90
2021/01/25 05:33:50;;;;;;;12.02;8.20;;;3.50;80.10;;;;;;4919925;29;20087;-90
2021/01/25 05:36:20;;;;;;;11.57;8.43;;;3.50;80.70;;;;;;4919604;29;20067;-90
2021/01/25 05:38:48;;;;;;;10.00;7.43;;;3.50;80.10;;;;;;4903839;29;20114;-89
2021/01/25 05:41:15;;;;;;;13.30;8.95;;;3.50;80.00;;;;;;4919444;29;20035;-89
2021/01/25 05:43:41;;;;;;;12.95;8.48;;;3.50;80.00;;;;;;4919007;29;20153;-90
2021/01/25 05:46:12;;;;;;;11.90;8.40;;;3.50;80.00;;;;;;4911038;29;20070;-90
2021/01/25 05:48:38;;;;;;;12.60;8.90;;;3.50;80.00;;;;;;4885755;29;20064;-90
2021/01/25 05:51:31;;;;;;;13.35;9.07;;;3.50;80.00;;;;;;4885028;29;20076;-88
2021/01/25 05:54:03;;;;;;;13.65;9.10;;;3.50;80.10;;;;;;4899029;29;20051;-88
2021/01/25 05:56:29;;;;;;;13.20;8.80;;;3.50;80.70;;;;;;4900651;29;20075;-88
2021/01/25 05:58:55;;;;;;;14.25;9.90;;;3.40;80.10;;;;;;4884992;29;20040;-88
2021/01/25 06:01:22;;;;;;;14.63;9.98;;;3.50;80.20;;;;;;4884689;29;20459;-88
2021/01/25 06:03:49;;;;;;;15.32;9.75;;;3.50;80.20;;;;;;4891538;29;20028;-88
2021/01/25 06:06:35;;;;;;;14.27;10.20;;;3.40;80.20;;;;;;4919194;29;20066;-88
2021/01/25 06:09:42;;;;;;;13.13;9.40;;;3.40;80.20;;;;;;4919116;29;20040;-88
2021/01/25 06:12:08;;;;;;;13.65;9.20;;;3.40;80.20;;;;;;4910453;29;20063;-88
2021/01/25 06:14:50;;;;;;;14.45;10.32;;;3.40;80.80;;;;;;4903620;29;20136;-88
2021/01/25 06:17:19;;;;;;;14.43;9.98;;;3.40;80.20;;;;;;4918995;29;20124;-88
2021/01/25 06:19:46;;;;;;;12.07;9.50;;;3.40;80.30;;;;;;4919520;29;20056;-87
2021/01/25 06:22:12;;;;;;;13.25;9.63;;;3.40;80.30;;;;;;4906514;29;20031;-88
2021/01/25 06:24:38;;;;;;;15.85;10.27;;;3.40;80.30;;;;;;4907153;29;20032;-88
2021/01/25 06:27:05;;;;;;;14.55;10.75;;;3.40;80.40;;;;;;4885607;29;20044;-88
2021/01/25 06:29:31;;;;;;;16.33;11.38;;;3.40;80.50;;;;;;4922683;29;20063;-88
2021/01/25 06:32:01;;;;;;;15.25;10.63;;;3.40;80.60;;;;;;4907684;29;20762;-88
2021/01/25 06:34:27;;;;;;;14.85;10.95;;;3.40;80.60;;;;;;4902704;29;20550;-87
2021/01/25 06:36:54;;;;;;;13.70;9.90;;;3.30;80.50;;;;;;4897664;29;20483;-87
2021/01/25 06:39:31;;;;;;;14.07;9.25;;;3.30;80.60;;;;;;4903284;29;20048;-88
2021/01/25 06:42:16;;;;;;;14.80;10.90;;;3.30;80.50;;;;;;4918226;29;20042;-87
2021/01/25 06:44:43;;;;;;;14.63;10.52;;;3.30;80.60;;;;;;4922419;29;20717;-87
2021/01/25 06:47:13;;;;;;;12.30;9.43;;;3.30;80.60;;;;;;4921920;29;20142;-87
2021/01/25 06:49:39;;;;;;;12.25;8.80;;;3.30;80.60;;;;;;4907648;29;20043;-88
2021/01/25 06:52:09;;;;;;;15.30;10.88;;;3.30;80.60;;;;;;4922191;29;20054;-88
2021/01/25 06:54:44;;;;;;;12.88;9.80;;;3.30;80.70;;;;;;4922300;29;20071;-88
2021/01/25 06:57:10;;;;;;;14.27;10.30;;;3.30;80.80;;;;;;4921656;29;20043;-88
2021/01/25 06:59:37;;;;;;;13.27;9.82;;;3.30;80.80;;;;;;4921329;29;20046;-88
2021/01/25 07:02:09;;;;;;;12.23;9.23;;;3.30;80.80;;;;;;4903838;29;20028;-86
2021/01/25 07:04:45;;;;;;;13.68;9.70;;;3.30;80.80;;;;;;4921379;29;20077;-86
2021/01/25 07:07:30;;;;;;;16.38;10.13;;;3.30;80.80;;;;;;4919082;29;20151;-87
2021/01/25 07:09:57;;;;;;;15.38;11.55;;;3.30;80.80;;;;;;4921301;29;20042;-86
2021/01/25 07:12:25;;;;;;;14.70;10.80;;;3.30;80.80;;;;;;4922066;29;20032;-86
2021/01/25 07:14:53;;;;;;;18.77;12.95;;;3.30;80.90;;;;;;4906016;29;20191;-86
2021/01/25 07:17:19;;;;;;;22.08;13.82;;;3.30;80.90;;;;;;4921810;29;20568;-86
2021/01/25 07:19:45;;;;;;;19.17;13.10;;;3.20;80.90;;;;;;4921854;29;20044;-86
2021/01/25 07:22:16;;;;;;;17.75;13.02;;;3.20;81.00;;;;;;4906140;29;20047;-86
2021/01/25 07:24:41;;;;;;;19.00;13.45;;;3.20;81.10;;;;;;4921524;29;20048;-87
2021/01/25 07:27:07;;;;;;;19.17;13.57;;;3.20;81.10;;;;;;4906307;29;20095;-86
2021/01/25 07:29:33;;;;;;;18.42;13.18;;;3.20;81.10;;;;;;4905565;29;20044;-87
2021/01/25 07:31:59;;;;;;;18.60;13.43;;;3.20;81.20;;;;;;4902136;29;20054;-86
2021/01/25 07:34:26;;;;;;;18.52;12.65;;;3.20;81.20;;;;;;4905577;29;20036;-86
2021/01/25 07:36:52;;;;;;;17.45;12.88;;;3.20;81.10;;;;;;4905925;29;20044;-86
2021/01/25 07:39:20;;;;;;;17.83;12.45;;;3.20;81.30;;;;;;4916266;29;20044;-87
2021/01/25 07:41:47;;;;;;;17.80;11.60;;;3.20;81.40;;;;;;4903282;29;20494;-87
2021/01/25 07:44:13;;;;;;;16.40;11.63;;;3.20;81.40;;;;;;4903636;29;20149;-86
2021/01/25 07:46:40;;;;;;;15.13;10.60;;;3.20;81.40;;;;;;4903114;29;20032;-84
2021/01/25 07:49:06;;;;;;;15.30;10.80;;;3.20;81.40;;;;;;4921373;29;20036;-84
2021/01/25 07:51:37;;;;;;;14.50;10.00;;;3.20;81.40;;;;;;4904719;29;20047;-84
2021/01/25 07:54:12;;;;;;;13.63;9.50;;;3.10;81.30;;;;;;4919328;29;20040;-87
2021/01/25 07:56:38;;;;;;;13.63;8.52;;;3.20;81.30;;;;;;4910161;29;20080;-87
2021/01/25 07:59:17;;;;;;;13.05;9.13;;;3.20;81.30;;;;;;4902602;29;20127;-85
2021/01/25 08:01:56;;;;;;;13.00;9.27;;;3.20;81.20;;;;;;4897152;29;20051;-88
2021/01/25 08:04:28;;;;;;;13.40;8.77;;;3.20;81.10;;;;;;4908609;29;20031;-88
2021/01/25 08:06:58;;;;;;;13.85;9.70;;;3.20;81.10;;;;;;4905164;29;20479;-87
2021/01/25 08:09:25;;;;;;;14.93;10.40;;;3.20;81.10;;;;;;4903697;29;20043;-86
2021/01/25 08:11:51;;;;;;;17.70;11.55;;;3.20;81.10;;;;;;4903299;29;20036;-85
2021/01/25 08:14:31;;;;;;;15.50;10.57;;;3.20;81.50;;;;;;4895043;29;20438;-88
2021/01/25 08:17:07;;;;;;;16.52;10.68;;;3.20;81.40;;;;;;4915271;29;20442;-87
2021/01/25 08:19:39;;;;;;;13.48;10.13;;;3.20;81.30;;;;;;4913193;29;20035;-88
2021/01/25 08:22:21;;;;;;;14.88;10.27;;;3.20;81.20;;;;;;4914068;29;20064;-87
2021/01/25 08:24:55;;;;;;;16.00;11.55;;;3.20;81.20;;;;;;4911068;29;20040;-87
2021/01/25 08:27:21;;;;;;;15.45;10.85;;;3.20;81.20;;;;;;4886312;29;20051;-87
2021/01/25 08:29:50;;;;;;;18.08;11.38;;;3.20;81.20;;;;;;4894208;29;20044;-87
2021/01/25 08:32:31;;;;;;;;;;;3.20;81.10;;;;;;4918077;29;20044;-87
2021/01/25 08:34:59;;;;;;;15.23;10.23;;;3.20;81.00;;;;;;4919266;29;19911;-87
2021/01/25 08:37:31;;;;;;;15.27;11.13;;;3.20;81.10;;;;;;4920485;29;20053;-87
2021/01/25 08:39:57;;;;;;;15.93;10.77;;;3.20;81.10;;;;;;4920794;29;20032;-87
2021/01/25 08:42:31;;;;;;;13.82;10.65;;;3.20;81.10;;;;;;4920214;29;20087;-87
2021/01/25 08:45:15;;;;;;;16.48;11.10;;;3.20;81.10;;;;;;4918922;29;20144;-88
2021/01/25 08:47:41;;;;;;;15.80;10.68;;;3.20;81.10;;;;;;4901132;29;20058;-88
2021/01/25 08:50:27;;;;;;;13.85;10.85;;;3.20;81.10;;;;;;4901751;29;20570;-88
2021/01/25 08:53:01;;;;;;;15.68;11.23;;;3.20;81.00;;;;;;4886128;29;20068;-88
2021/01/25 08:55:35;;;;;;;15.93;12.07;;;3.20;81.00;;;;;;4901320;29;20084;-88
2021/01/25 08:58:13;;;;;;;16.60;11.50;;;3.20;81.00;;;;;;4910902;29;20032;-88
2021/01/25 09:00:42;;;;;;;14.60;11.10;;;3.20;81.10;;;;;;4920352;29;20068;-88
2021/01/25 09:03:12;;;;;;;;;;;3.30;81.10;;;;;;4916678;29;20538;-88
2021/01/25 09:05:51;;;;;;;13.50;9.45;;;3.30;81.00;;;;;;5110598;27;20355;-87
2021/01/25 09:08:34;;;;;;;13.88;10.32;;;3.30;80.90;;;;;;5126840;28;20128;-86
2021/01/25 09:11:00;;;;;;;16.50;11.63;;;3.30;80.80;;;;;;5110167;28;20024;-85
2021/01/25 09:13:25;;;;;;;14.98;11.52;;;3.30;80.80;;;;;;5109327;28;20443;-85
2021/01/25 09:15:51;;;;;;;16.83;12.35;;;3.30;80.80;;;;;;5089438;28;20035;-85
2021/01/25 09:18:17;;;;;;;15.75;11.05;;;3.40;80.80;;;;;;5106826;28;20408;-85
2021/01/25 09:20:42;;;;;;;16.92;12.10;;;3.30;80.80;;;;;;5109433;28;20039;-85
2021/01/25 09:23:08;;;;;;;17.10;12.18;;;3.40;80.80;;;;;;5092370;28;20564;-85
2021/01/25 09:25:34;;;;;;;17.73;12.82;;;3.40;80.70;;;;;;5109173;28;20084;-85
2021/01/25 09:28:00;;;;;;;16.50;12.48;;;3.40;80.70;;;;;;5092623;28;20120;-84
2021/01/25 09:30:28;;;;;;;14.98;11.93;;;3.30;80.70;;;;;;5088024;28;20057;-86
2021/01/25 09:32:54;;;;;;;16.77;12.25;;;3.40;80.70;;;;;;5091134;28;20024;-88
2021/01/25 09:35:22;;;;;;;17.30;12.60;;;3.40;80.70;;;;;;5108393;28;20024;-86
2021/01/25 09:37:48;;;;;;;16.30;12.35;;;3.40;80.70;;;;;;5109835;28;20038;-87
2021/01/25 09:40:16;;;;;;;17.00;12.68;;;3.40;80.70;;;;;;5107778;28;20380;-85
2021/01/25 09:42:42;;;;;;;18.48;14.45;;;3.40;80.60;;;;;;5105918;28;20112;-83
2021/01/25 09:45:10;;;;;;;16.98;13.20;;;3.40;80.60;;;;;;5110501;28;20068;-84
2021/01/25 09:47:36;;;;;;;18.15;13.07;;;3.40;80.50;;;;;;5109370;28;20055;-84
2021/01/25 09:50:01;;;;;;;18.08;14.00;;;3.50;80.50;;;;;;5092455;28;20105;-86
2021/01/25 09:52:30;;;;;;;19.02;12.65;;;3.50;80.50;;;;;;5108957;28;20031;-85
2021/01/25 09:54:55;;;;;;;21.05;14.85;;;3.50;80.50;;;;;;5109209;28;20034;-86
2021/01/25 09:57:21;;;;;;;17.95;14.55;;;3.50;81.00;;;;;;5092141;28;20032;-86
2021/01/25 09:59:47;;;;;;;19.27;14.05;;;3.60;80.40;;;;;;5092686;28;20066;-86
2021/01/25 10:02:13;;;;;;;21.77;16.80;;;3.60;80.30;;;;;;5109626;28;20024;-87
2021/01/25 10:04:38;;;;;;;24.08;17.13;;;3.60;80.20;;;;;;5092330;28;20048;-87
2021/01/25 10:07:04;;;;;;;23.25;17.48;;;3.70;80.30;;;;;;5093163;28;20032;-87
2021/01/25 10:09:30;;;;;;;20.92;16.35;;;3.70;80.40;;;;;;5109800;28;20031;-87
2021/01/25 10:11:56;;;;;;;25.58;17.77;;;3.80;80.40;;;;;;5093439;28;20610;-87
2021/01/25 10:14:22;;;;;;;24.23;17.92;;;3.80;80.40;;;;;;5113197;28;20110;-91
2021/01/25 10:16:47;;;;;;;25.35;19.05;;;3.80;80.40;;;;;;5096137;28;20024;-87
2021/01/25 10:19:13;;;;;;;20.70;16.92;;;3.80;80.40;;;;;;5095431;28;20046;-87
2021/01/25 10:21:39;;;;;;;22.30;15.52;;;3.90;80.40;;;;;;5078503;28;20034;-91
2021/01/25 10:24:05;;;;;;;23.67;17.27;;;3.90;80.30;;;;;;5078628;28;20079;-87
2021/01/25 10:26:31;;;;;;;24.52;19.23;;;4.00;80.20;;;;;;5095718;28;20032;-91
2021/01/25 10:28:56;;;;;;;26.00;18.58;;;4.00;80.20;;;;;;5079081;28;20469;-90
2021/01/25 10:31:22;;;;;;;23.88;17.77;;;4.00;80.20;;;;;;5079133;28;20020;-89
2021/01/25 10:33:50;;;;;;;21.88;17.48;;;4.00;80.10;;;;;;5079153;28;20099;-92
2021/01/25 10:36:16;;;;;;;21.08;15.45;;;4.10;80.10;;;;;;5096045;28;20055;-92
2021/01/25 10:38:43;;;;;;;22.27;17.27;;;4.10;80.00;;;;;;5078956;28;20401;-90
2021/01/25 10:41:09;;;;;;;23.23;16.95;;;4.20;79.90;;;;;;5077952;28;20024;-91
2021/01/25 10:43:37;;;;;;;23.27;17.20;;;4.20;79.90;;;;;;5079096;28;20553;-91
2021/01/25 10:46:02;;;;;;;23.03;17.10;;;4.30;79.90;;;;;;5095928;28;20373;-92
2021/01/25 10:48:28;;;;;;;28.00;18.38;;;4.40;79.80;;;;;;5078783;28;20492;-92
2021/01/25 10:50:53;;;;;;;21.83;17.20;;;4.40;80.30;;;;;;5078110;28;20025;-92
2021/01/25 10:53:19;;;;;;;21.10;16.17;;;4.50;79.70;;;;;;5078169;28;20028;-92
2021/01/25 10:55:45;;;;;;;23.40;17.05;;;4.60;79.70;;;;;;5043212;22;20506;-85
2021/01/25 10:58:13;;;;;;;22.25;16.77;;;4.60;79.70;;;;;;4997359;28;20079;-85
2021/01/25 11:00:38;;;;;;;22.08;16.75;;;4.70;79.80;;;;;;4997236;28;20033;-84
2021/01/25 11:03:04;;;;;;;19.52;14.55;;;4.70;79.70;;;;;;4997287;28;20037;-85
2021/01/25 11:05:30;;;;;;;20.98;15.65;;;4.70;79.60;;;;;;5004458;28;20033;-85
2021/01/25 11:07:55;;;;;;;20.08;14.98;;;4.80;79.50;;;;;;4981496;28;20054;-84
2021/01/25 11:10:28;;;;;;;22.77;14.77;;;4.80;79.50;;;;;;4986217;28;20491;-84
2021/01/25 11:12:54;;;;;;;17.90;14.00;;;4.90;79.30;;;;;;5000548;28;20118;-84
2021/01/25 11:15:36;;;;;;;20.95;15.15;;;4.90;79.30;;;;;;4997879;28;20129;-84
2021/01/25 11:18:03;;;;;;;17.75;13.18;;;4.90;79.20;;;;;;4984036;28;20092;-85
2021/01/25 11:20:28;;;;;;;17.58;12.90;;;4.90;79.20;;;;;;5001694;28;20038;-85
2021/01/25 11:22:54;;;;;;;18.75;13.43;;;5.00;79.00;;;;;;4997271;28;20029;-86
2021/01/25 11:25:19;;;;;;;17.90;12.88;;;5.00;78.90;;;;;;5027918;28;20107;-85
2021/01/25 11:27:45;;;;;;;17.83;12.02;;;5.00;78.80;;;;;;4998606;28;20026;-85
2021/01/25 11:30:12;;;;;;;18.35;12.68;;;5.10;78.80;;;;;;4988907;28;20365;-85
2021/01/25 11:32:37;;;;;;;14.13;10.63;;;5.20;78.60;;;;;;5005052;28;20400;-85
2021/01/25 11:35:04;;;;;;;21.63;12.95;;;5.20;78.60;;;;;;4999771;28;20038;-85
2021/01/25 11:37:29;;;;;;;15.40;11.45;;;5.20;78.30;;;;;;4999235;28;20065;-85
2021/01/25 11:39:55;;;;;;;15.30;11.05;;;5.30;78.20;;;;;;4985817;28;20061;-86
2021/01/25 11:42:21;;;;;;;16.67;11.75;;;5.30;78.10;;;;;;4999323;28;20542;-86
2021/01/25 11:44:46;;;;;;;15.63;11.43;;;5.40;78.20;;;;;;4998201;28;20058;-87
2021/01/25 11:47:12;;;;;;;17.83;12.10;;;5.40;78.00;;;;;;5000756;28;20057;-86
2021/01/25 11:49:38;;;;;;;15.18;11.07;;;5.50;77.80;;;;;;5000339;28;20057;-86
2021/01/25 11:52:03;;;;;;;14.20;11.20;;;5.50;77.80;;;;;;5017460;28;20072;-87
2021/01/25 11:54:29;;;;;;;15.43;10.70;;;5.60;77.70;;;;;;5010433;28;20049;-86
2021/01/25 11:56:55;;;;;;;17.17;12.25;;;5.70;77.70;;;;;;4994520;28;20034;-86
2021/01/25 11:59:21;;;;;;;17.17;13.27;;;5.70;77.60;;;;;;5003518;28;20030;-86
2021/01/25 12:01:46;;;;;;;18.20;13.70;;;5.80;77.50;;;;;;4991155;28;20053;-86
2021/01/25 12:04:12;;;;;;;17.08;11.80;;;5.90;77.30;;;;;;5033410;28;20034;-86
2021/01/25 12:06:38;;;;;;;14.23;11.52;;;5.90;77.30;;;;;;5016522;28;20033;-86
2021/01/25 12:09:04;;;;;;;16.33;12.02;;;6.00;77.40;;;;;;4997054;28;20029;-87
2021/01/25 12:11:33;;;;;;;14.80;11.32;;;6.00;77.30;;;;;;4997114;28;20383;-86
2021/01/25 12:13:58;;;;;;;19.10;12.18;;;6.00;77.10;;;;;;5012889;28;20034;-86
2021/01/25 12:16:24;;;;;;;14.98;10.52;;;6.10;77.00;;;;;;5013966;28;20367;-86
2021/01/25 12:18:52;;;;;;;16.02;11.35;;;6.10;76.90;;;;;;4998344;28;20053;-87
2021/01/25 12:21:18;;;;;;;16.00;12.07;;;6.10;76.70;;;;;;5012211;28;20033;-86
2021/01/25 12:23:43;;;;;;;18.50;12.55;;;6.10;76.50;;;;;;5013123;28;20490;-86
2021/01/25 12:26:09;;;;;;;14.13;10.52;;;6.10;76.40;;;;;;5014233;28;20037;-87
2021/01/25 12:28:38;;;;;;;15.23;10.07;;;6.20;76.30;;;;;;5014565;28;20053;-86
2021/01/25 12:31:06;;;;;;;14.50;9.65;;;6.20;76.00;;;;;;4997628;28;20520;-87
2021/01/25 12:33:32;;;;;;;12.55;9.88;;;6.20;75.90;;;;;;5013110;28;20025;-86
2021/01/25 12:35:58;;;;;;;11.45;8.73;;;6.20;75.80;;;;;;4996252;28;20075;-87
2021/01/25 12:38:24;;;;;;;11.30;8.75;;;6.20;75.70;;;;;;4999519;28;20026;-87
2021/01/25 12:40:50;;;;;;;23.50;10.50;;;6.20;75.70;;;;;;5020686;28;20034;-86
2021/01/25 12:43:15;;;;;;;13.82;10.50;;;6.20;75.50;;;;;;5027880;28;20116;-87
2021/01/25 12:45:41;;;;;;;12.77;8.82;;;6.20;75.30;;;;;;5007506;28;20042;-86